Archival Weather

Reid-Hillview of Santa Clara County

San Jose, California (KRHV)

Report from: Saturday, December 2, 2023 7:50 PM PST
Current time: Wednesday, April 24, 2024 11:02 AM PDT

Current weather – Weather history – Daily summaries
Weather forecast

Temperature13.0°C (55.4°F)
Dew point11.0°C (51.8°F)
Winds Calm
Visibility10 mi. (16.1 km)
Clouds Scattered clouds 2,500 ft. (762 m)
Ceiling: Broken clouds 6,000 ft. (1,829 m)
Altimeter30.26 in.Hg (1025 mB)
Relative humidity88 %
Density altitude-440 ft. (-134 m)
Flight conditions Visual Meteorological Conditions
Raw dataKRHV 030350Z 00000KT 10SM SCT025 BKN060 13/11 A3026
An error has occurred. This application may no longer respond until reloaded. Reload 🗙